createdAt,value
2016-12-04T00:00:41.497Z,971.69
2016-12-04T00:01:41.457Z,971.67
2016-12-04T00:02:41.416Z,971.7
2016-12-04T00:03:41.372Z,971.7
2016-12-04T00:04:41.331Z,971.76
2016-12-04T00:05:41.290Z,971.76
2016-12-04T00:06:41.246Z,971.76
2016-12-04T00:07:41.205Z,971.79
2016-12-04T00:08:41.163Z,971.78
2016-12-04T00:09:41.119Z,971.78
2016-12-04T00:10:41.080Z,971.8
2016-12-04T00:11:41.039Z,971.78
2016-12-04T00:12:40.997Z,971.79
2016-12-04T00:13:40.956Z,971.79
2016-12-04T00:14:40.912Z,971.77
2016-12-04T00:15:40.871Z,971.78
2016-12-04T00:16:40.828Z,971.8
2016-12-04T00:17:40.787Z,971.79
2016-12-04T00:18:40.747Z,971.8
2016-12-04T00:19:40.702Z,971.8
2016-12-04T00:20:40.661Z,971.78
2016-12-04T00:21:40.619Z,971.8
2016-12-04T00:22:40.577Z,971.78
2016-12-04T00:23:40.537Z,971.83
2016-12-04T00:24:40.494Z,971.86
2016-12-04T00:25:40.454Z,971.82
2016-12-04T00:26:40.411Z,971.82
2016-12-04T00:27:40.369Z,971.8
2016-12-04T00:28:40.327Z,971.8
2016-12-04T00:29:40.285Z,971.83
2016-12-04T00:30:40.244Z,971.88
2016-12-04T00:31:40.201Z,971.85
2016-12-04T00:32:40.159Z,971.84
2016-12-04T00:33:40.116Z,971.89
2016-12-04T00:34:40.076Z,971.92
2016-12-04T00:35:40.034Z,971.9
2016-12-04T00:36:39.993Z,971.94
2016-12-04T00:37:39.952Z,971.93
2016-12-04T00:38:39.910Z,971.94
2016-12-04T00:39:39.867Z,971.92
2016-12-04T00:40:39.827Z,971.86
2016-12-04T00:41:39.785Z,971.9
2016-12-04T00:42:39.742Z,971.92
2016-12-04T00:43:39.701Z,971.91
2016-12-04T00:44:39.659Z,971.9
2016-12-04T00:45:39.620Z,971.92
2016-12-04T00:46:39.578Z,971.91
2016-12-04T00:47:39.536Z,971.91
2016-12-04T00:48:39.493Z,971.94
2016-12-04T00:49:39.452Z,971.92
2016-12-04T00:50:39.412Z,971.97
2016-12-04T00:51:39.368Z,971.92
2016-12-04T00:52:39.327Z,971.97
2016-12-04T00:53:39.284Z,971.95
2016-12-04T00:54:39.243Z,971.94
2016-12-04T00:55:39.201Z,971.95
2016-12-04T00:56:39.160Z,972
2016-12-04T00:57:39.118Z,971.97
2016-12-04T00:58:39.076Z,971.96
2016-12-04T00:59:39.035Z,971.97
2016-12-04T01:00:38.993Z,971.96
2016-12-04T01:01:38.952Z,971.95
2016-12-04T01:02:38.909Z,971.97
2016-12-04T01:03:38.894Z,971.99
2016-12-04T01:04:38.827Z,972.01
2016-12-04T01:05:38.786Z,972
2016-12-04T01:06:38.744Z,972.04
2016-12-04T01:07:38.703Z,971.98
2016-12-04T01:08:38.661Z,971.97
2016-12-04T01:09:38.621Z,972.03
2016-12-04T01:10:38.579Z,972.01
2016-12-04T01:11:38.537Z,972.05
2016-12-04T01:12:38.495Z,972.06
2016-12-04T01:13:38.453Z,972.07
2016-12-04T01:14:38.413Z,972.09
2016-12-04T01:15:38.370Z,972.11
2016-12-04T01:16:38.328Z,972.16
2016-12-04T01:17:38.286Z,972.17
2016-12-04T01:18:38.243Z,972.2
2016-12-04T01:19:38.205Z,972.2
2016-12-04T01:20:38.160Z,972.23
2016-12-04T01:21:38.120Z,972.23
2016-12-04T01:22:38.078Z,972.22
2016-12-04T01:23:38.037Z,972.23
2016-12-04T01:24:37.995Z,972.22
2016-12-04T01:25:37.953Z,972.27
2016-12-04T01:26:37.911Z,972.28
2016-12-04T01:27:37.870Z,972.28
2016-12-04T01:28:37.829Z,972.28
2016-12-04T01:29:37.786Z,972.34
2016-12-04T01:30:37.744Z,972.35
2016-12-04T01:31:37.702Z,972.34
2016-12-04T01:32:37.661Z,972.34
2016-12-04T01:33:37.618Z,972.35
2016-12-04T01:34:37.577Z,972.33
2016-12-04T01:35:37.534Z,972.31
2016-12-04T01:36:37.493Z,972.31
2016-12-04T01:37:37.451Z,972.32
2016-12-04T01:38:37.411Z,972.3
2016-12-04T01:39:37.371Z,972.31
2016-12-04T01:40:37.329Z,972.33
2016-12-04T01:41:37.287Z,972.35
2016-12-04T01:42:37.243Z,972.33
2016-12-04T01:43:37.202Z,972.33
2016-12-04T01:44:37.162Z,972.3
2016-12-04T01:45:37.119Z,972.31
2016-12-04T01:46:37.077Z,972.31
2016-12-04T01:47:37.034Z,972.28
2016-12-04T01:48:36.992Z,972.26
2016-12-04T01:49:36.950Z,972.3
2016-12-04T01:50:36.909Z,972.29
2016-12-04T01:51:36.868Z,972.32
2016-12-04T01:52:36.825Z,972.28
2016-12-04T01:53:36.782Z,972.35
2016-12-04T01:54:36.742Z,972.32
2016-12-04T01:55:36.698Z,972.32
2016-12-04T01:56:36.657Z,972.31
2016-12-04T01:57:36.617Z,972.29
2016-12-04T01:58:36.574Z,972.34
2016-12-04T01:59:36.531Z,972.31
2016-12-04T02:00:36.492Z,972.31
2016-12-04T02:01:36.448Z,972.31
2016-12-04T02:02:36.407Z,972.3
2016-12-04T02:03:36.365Z,972.31
2016-12-04T02:04:36.323Z,972.32
2016-12-04T02:05:36.281Z,972.27
2016-12-04T02:06:36.236Z,972.29
2016-12-04T02:07:36.196Z,972.28
2016-12-04T02:08:36.159Z,972.29
2016-12-04T02:09:36.113Z,972.28
2016-12-04T02:10:36.070Z,972.24
2016-12-04T02:11:36.029Z,972.29
2016-12-04T02:12:35.987Z,972.27
2016-12-04T02:13:35.945Z,972.3
2016-12-04T02:14:35.902Z,972.25
2016-12-04T02:15:35.861Z,972.27
2016-12-04T02:16:35.819Z,972.27
2016-12-04T02:17:35.776Z,972.25
2016-12-04T02:18:35.736Z,972.29
2016-12-04T02:19:35.693Z,972.24
2016-12-04T02:20:35.652Z,972.29
2016-12-04T02:21:35.610Z,972.25
2016-12-04T02:22:35.568Z,972.24
2016-12-04T02:23:35.527Z,972.24
2016-12-04T02:24:35.484Z,972.27
2016-12-04T02:25:36.043Z,972.23
2016-12-04T02:26:35.401Z,972.25
2016-12-04T02:27:35.367Z,972.21
2016-12-04T02:28:35.314Z,972.24
2016-12-04T02:29:35.275Z,972.22
2016-12-04T02:30:35.233Z,972.18
2016-12-04T02:31:35.191Z,972.2
2016-12-04T02:32:35.148Z,972.2
2016-12-04T02:33:35.108Z,972.18
2016-12-04T02:34:35.066Z,972.14
2016-12-04T02:35:35.024Z,972.13
2016-12-04T02:36:34.981Z,972.17
2016-12-04T02:37:34.939Z,972.08
2016-12-04T02:38:34.898Z,972.09
2016-12-04T02:39:34.855Z,972.09
2016-12-04T02:40:34.814Z,972.1
2016-12-04T02:41:34.990Z,972.07
2016-12-04T02:42:34.729Z,972.13
2016-12-04T02:43:34.688Z,972.06
2016-12-04T02:44:34.644Z,972.09
2016-12-04T02:45:34.603Z,972.11
2016-12-04T02:46:34.563Z,972.1
2016-12-04T02:47:34.523Z,972.11
2016-12-04T02:48:34.480Z,972.11
2016-12-04T02:49:34.436Z,972.08
2016-12-04T02:50:34.396Z,972.1
2016-12-04T02:51:34.351Z,972.14
2016-12-04T02:52:34.313Z,972.16
2016-12-04T02:53:34.269Z,972.13
2016-12-04T02:54:34.231Z,972.15
2016-12-04T02:55:34.185Z,972.15
2016-12-04T02:56:34.143Z,972.16
2016-12-04T02:57:34.099Z,972.16
2016-12-04T02:58:34.061Z,972.18
2016-12-04T02:59:34.016Z,972.19
2016-12-04T03:00:33.975Z,972.23
2016-12-04T03:01:33.932Z,972.22
2016-12-04T03:02:33.891Z,972.23
2016-12-04T03:03:33.849Z,972.21
2016-12-04T03:04:33.807Z,972.21
2016-12-04T03:05:33.765Z,972.26
2016-12-04T03:06:33.722Z,972.25
2016-12-04T03:07:33.680Z,972.26
2016-12-04T03:08:33.638Z,972.24
2016-12-04T03:09:33.596Z,972.3
2016-12-04T03:10:33.556Z,972.29
2016-12-04T03:11:33.513Z,972.28
2016-12-04T03:12:33.470Z,972.27
2016-12-04T03:13:33.427Z,972.29
2016-12-04T03:14:33.387Z,972.28
2016-12-04T03:15:33.348Z,972.26
2016-12-04T03:16:33.303Z,972.3
2016-12-04T03:17:33.477Z,972.3
2016-12-04T03:18:33.218Z,972.29
2016-12-04T03:19:33.179Z,972.28
2016-12-04T03:20:33.134Z,972.3
2016-12-04T03:21:33.092Z,972.26
2016-12-04T03:22:33.051Z,972.27
2016-12-04T03:23:33.008Z,972.28
2016-12-04T03:24:32.966Z,972.27
2016-12-04T03:25:32.924Z,972.22
2016-12-04T03:26:32.882Z,972.23
2016-12-04T03:27:32.840Z,972.23
2016-12-04T03:28:32.799Z,972.22
2016-12-04T03:29:32.757Z,972.29
2016-12-04T03:30:32.715Z,972.26
2016-12-04T03:31:32.672Z,972.31
2016-12-04T03:32:32.632Z,972.32
2016-12-04T03:33:32.589Z,972.31
2016-12-04T03:34:32.546Z,972.37
2016-12-04T03:35:32.504Z,972.34
2016-12-04T03:36:32.462Z,972.31
2016-12-04T03:37:32.423Z,972.34
2016-12-04T03:38:32.382Z,972.39
2016-12-04T03:39:32.336Z,972.37
2016-12-04T03:40:32.295Z,972.34
2016-12-04T03:41:32.252Z,972.32
2016-12-04T03:42:32.211Z,972.33
2016-12-04T03:43:32.168Z,972.35
2016-12-04T03:44:32.128Z,972.31
2016-12-04T03:45:32.084Z,972.34
2016-12-04T03:46:32.043Z,972.36
2016-12-04T03:47:32.001Z,972.34
2016-12-04T03:48:31.959Z,972.34
2016-12-04T03:49:31.918Z,972.35
2016-12-04T03:50:31.875Z,972.38
2016-12-04T03:51:31.835Z,972.35
2016-12-04T03:52:31.791Z,972.33
2016-12-04T03:53:31.753Z,972.36
2016-12-04T03:54:31.708Z,972.35
2016-12-04T03:55:31.675Z,972.38
2016-12-04T03:56:31.623Z,972.37
2016-12-04T03:57:31.583Z,972.34
2016-12-04T03:58:31.541Z,972.34
2016-12-04T03:59:31.500Z,972.35
2016-12-04T04:00:31.455Z,972.34
2016-12-04T04:01:31.415Z,972.38
2016-12-04T04:02:31.371Z,972.37
2016-12-04T04:03:31.330Z,972.36
2016-12-04T04:04:31.289Z,972.42
2016-12-04T04:05:31.247Z,972.37
2016-12-04T04:06:31.206Z,972.39
2016-12-04T04:07:31.163Z,972.39
2016-12-04T04:08:31.121Z,972.34
2016-12-04T04:09:31.081Z,972.38
2016-12-04T04:10:31.039Z,972.4
2016-12-04T04:11:30.996Z,972.4
2016-12-04T04:12:30.954Z,972.38
2016-12-04T04:13:30.914Z,972.38
2016-12-04T04:14:30.870Z,972.37
2016-12-04T04:15:30.828Z,972.36
2016-12-04T04:16:30.787Z,972.37
2016-12-04T04:17:30.745Z,972.37
2016-12-04T04:18:30.702Z,972.38
2016-12-04T04:19:30.662Z,972.39
2016-12-04T04:20:30.619Z,972.41
2016-12-04T04:21:30.580Z,972.42
2016-12-04T04:22:30.534Z,972.45
2016-12-04T04:23:30.494Z,972.44
2016-12-04T04:24:30.452Z,972.48
2016-12-04T04:25:30.409Z,972.47
2016-12-04T04:26:30.368Z,972.44
2016-12-04T04:27:30.326Z,972.47
2016-12-04T04:28:30.285Z,972.49
2016-12-04T04:29:30.241Z,972.49
2016-12-04T04:30:30.200Z,972.45
2016-12-04T04:31:30.160Z,972.42
2016-12-04T04:32:30.119Z,972.4
2016-12-04T04:33:30.075Z,972.38
2016-12-04T04:34:30.033Z,972.44
2016-12-04T04:35:29.992Z,972.45
2016-12-04T04:36:29.950Z,972.45
2016-12-04T04:37:29.909Z,972.48
2016-12-04T04:38:29.867Z,972.49
2016-12-04T04:39:29.824Z,972.52
2016-12-04T04:40:29.783Z,972.51
2016-12-04T04:41:29.742Z,972.54
2016-12-04T04:42:29.699Z,972.5
2016-12-04T04:43:29.657Z,972.48
2016-12-04T04:44:29.616Z,972.53
2016-12-04T04:45:29.573Z,972.48
2016-12-04T04:46:29.532Z,972.54
2016-12-04T04:47:29.489Z,972.55
2016-12-04T04:48:29.446Z,972.49
2016-12-04T04:49:29.406Z,972.48
2016-12-04T04:50:29.366Z,972.48
2016-12-04T04:51:29.323Z,972.47
2016-12-04T04:52:29.283Z,972.49
2016-12-04T04:53:29.239Z,972.47
2016-12-04T04:54:29.198Z,972.49
2016-12-04T04:55:29.155Z,972.48
2016-12-04T04:56:29.113Z,972.45
2016-12-04T04:57:29.072Z,972.46
2016-12-04T04:58:29.030Z,972.43
2016-12-04T04:59:28.989Z,972.4
2016-12-04T05:00:28.947Z,972.45
2016-12-04T05:01:28.905Z,972.48
2016-12-04T05:02:28.863Z,972.46
2016-12-04T05:03:28.821Z,972.48
2016-12-04T05:04:28.779Z,972.49
2016-12-04T05:05:28.738Z,972.53
2016-12-04T05:06:28.695Z,972.51
2016-12-04T05:07:28.656Z,972.52
2016-12-04T05:08:28.614Z,972.55
2016-12-04T05:09:28.570Z,972.57
2016-12-04T05:10:28.528Z,972.52
2016-12-04T05:11:28.487Z,972.51
2016-12-04T05:12:28.445Z,972.53
2016-12-04T05:13:28.403Z,972.51
2016-12-04T05:14:28.362Z,972.53
2016-12-04T05:15:28.321Z,972.56
2016-12-04T05:16:28.277Z,972.6
2016-12-04T05:17:28.236Z,972.6
2016-12-04T05:18:28.194Z,972.59
2016-12-04T05:19:28.152Z,972.6
2016-12-04T05:20:28.118Z,972.63
2016-12-04T05:21:28.068Z,972.59
2016-12-04T05:22:28.026Z,972.56
2016-12-04T05:23:27.987Z,972.54
2016-12-04T05:24:27.943Z,972.59
2016-12-04T05:25:27.902Z,972.58
2016-12-04T05:26:27.860Z,972.56
2016-12-04T05:27:27.817Z,972.59
2016-12-04T05:28:27.776Z,972.58
2016-12-04T05:29:27.734Z,972.59
2016-12-04T05:30:27.692Z,972.58
2016-12-04T05:31:27.649Z,972.61
2016-12-04T05:32:27.606Z,972.66
2016-12-04T05:33:27.569Z,972.61
2016-12-04T05:34:27.526Z,972.62
2016-12-04T05:35:27.483Z,972.6
2016-12-04T05:36:27.440Z,972.64
2016-12-04T05:37:27.399Z,972.6
2016-12-04T05:38:27.356Z,972.59
2016-12-04T05:39:27.314Z,972.62
2016-12-04T05:40:27.272Z,972.66
2016-12-04T05:41:27.232Z,972.67
2016-12-04T05:42:27.188Z,972.69
2016-12-04T05:43:27.146Z,972.69
2016-12-04T05:44:27.105Z,972.7
2016-12-04T05:45:27.064Z,972.72
2016-12-04T05:46:27.021Z,972.69
2016-12-04T05:47:26.980Z,972.71
2016-12-04T05:48:26.938Z,972.72
2016-12-04T05:49:26.894Z,972.7
2016-12-04T05:50:26.854Z,972.75
2016-12-04T05:51:26.812Z,972.74
2016-12-04T05:52:26.771Z,972.72
2016-12-04T05:53:26.728Z,972.78
2016-12-04T05:54:26.687Z,972.76
2016-12-04T05:55:26.643Z,972.77
2016-12-04T05:56:26.602Z,972.77
2016-12-04T05:57:26.559Z,972.75
2016-12-04T05:58:26.518Z,972.74
2016-12-04T05:59:26.475Z,972.75
2016-12-04T06:00:26.432Z,972.75
2016-12-04T06:01:26.402Z,972.74
2016-12-04T06:02:26.350Z,972.76
2016-12-04T06:03:26.307Z,972.75
2016-12-04T06:04:26.266Z,972.76
2016-12-04T06:05:26.224Z,972.74
2016-12-04T06:06:26.182Z,972.75
2016-12-04T06:07:26.141Z,972.74
2016-12-04T06:08:26.100Z,972.78
2016-12-04T06:09:26.058Z,972.83
2016-12-04T06:10:26.016Z,972.83
2016-12-04T06:11:25.976Z,972.88
2016-12-04T06:12:25.933Z,972.86
2016-12-04T06:13:25.889Z,972.9
2016-12-04T06:14:25.850Z,972.89
2016-12-04T06:15:25.806Z,972.89
2016-12-04T06:16:25.762Z,972.84
2016-12-04T06:17:25.722Z,972.87
2016-12-04T06:18:25.679Z,972.84
2016-12-04T06:19:25.638Z,972.83
2016-12-04T06:20:25.596Z,972.86
2016-12-04T06:21:25.555Z,972.83
2016-12-04T06:22:25.512Z,972.88
2016-12-04T06:23:25.472Z,972.87
2016-12-04T06:24:25.428Z,972.87
2016-12-04T06:25:25.388Z,972.93
2016-12-04T06:26:25.344Z,972.94
2016-12-04T06:27:25.303Z,972.91
2016-12-04T06:28:25.260Z,972.92
2016-12-04T06:29:25.219Z,972.87
2016-12-04T06:30:25.178Z,972.9
2016-12-04T06:31:25.136Z,972.9
2016-12-04T06:32:25.094Z,972.91
2016-12-04T06:33:25.051Z,972.9
2016-12-04T06:34:25.012Z,972.94
2016-12-04T06:35:24.969Z,972.93
2016-12-04T06:36:24.926Z,972.93
2016-12-04T06:37:24.884Z,972.93
2016-12-04T06:38:24.842Z,972.9
2016-12-04T06:39:24.800Z,972.96
2016-12-04T06:40:24.759Z,972.9
2016-12-04T06:41:24.717Z,972.93
2016-12-04T06:42:24.675Z,972.91
2016-12-04T06:43:24.634Z,972.93
2016-12-04T06:44:24.590Z,972.91
2016-12-04T06:45:24.549Z,972.92
2016-12-04T06:46:24.506Z,972.93
2016-12-04T06:47:24.467Z,972.97
2016-12-04T06:48:24.424Z,972.94
2016-12-04T06:49:24.383Z,972.96
2016-12-04T06:50:24.344Z,972.94
2016-12-04T06:51:24.299Z,973.02
2016-12-04T06:52:24.259Z,973.01
2016-12-04T06:53:24.216Z,973.06
2016-12-04T06:54:24.174Z,973
2016-12-04T06:55:24.132Z,973.07
2016-12-04T06:56:24.095Z,973.05
2016-12-04T06:57:24.048Z,973.04
2016-12-04T06:58:24.006Z,973.05
2016-12-04T06:59:23.966Z,973.06
2016-12-04T07:00:23.923Z,973.1
2016-12-04T07:01:23.881Z,973.08
2016-12-04T07:02:23.840Z,973.11
2016-12-04T07:03:23.798Z,973.08
2016-12-04T07:04:23.759Z,973.13
2016-12-04T07:05:23.713Z,973.11
2016-12-04T07:06:23.671Z,973.09
2016-12-04T07:07:23.630Z,973.08
2016-12-04T07:08:23.589Z,973.07
2016-12-04T07:09:23.547Z,973.12
2016-12-04T07:10:23.506Z,973.11
2016-12-04T07:11:23.462Z,973.12
2016-12-04T07:12:23.422Z,973.15
2016-12-04T07:13:23.380Z,973.16
2016-12-04T07:14:23.337Z,973.14
2016-12-04T07:15:23.296Z,973.18
2016-12-04T07:16:23.253Z,973.18
2016-12-04T07:17:23.212Z,973.15
2016-12-04T07:18:23.171Z,973.14
2016-12-04T07:19:23.129Z,973.15
2016-12-04T07:20:23.087Z,973.16
2016-12-04T07:21:23.044Z,973.21
2016-12-04T07:22:23.003Z,973.21
2016-12-04T07:23:22.962Z,973.21
2016-12-04T07:24:22.920Z,973.27
2016-12-04T07:25:22.876Z,973.25
2016-12-04T07:26:22.835Z,973.26
2016-12-04T07:27:22.793Z,973.25
2016-12-04T07:28:22.750Z,973.27
2016-12-04T07:29:22.710Z,973.3
2016-12-04T07:30:22.666Z,973.27
2016-12-04T07:31:22.626Z,973.29
2016-12-04T07:32:22.584Z,973.27
2016-12-04T07:33:22.543Z,973.31
2016-12-04T07:34:22.499Z,973.28
2016-12-04T07:35:22.459Z,973.3
2016-12-04T07:36:22.416Z,973.28
2016-12-04T07:37:22.375Z,973.32
2016-12-04T07:38:22.333Z,973.29
2016-12-04T07:39:22.291Z,973.35
2016-12-04T07:40:22.249Z,973.35
2016-12-04T07:41:22.211Z,973.34
2016-12-04T07:42:22.167Z,973.34
2016-12-04T07:43:22.124Z,973.33
2016-12-04T07:44:22.082Z,973.38
2016-12-04T07:45:22.041Z,973.41
2016-12-04T07:46:21.999Z,973.38
2016-12-04T07:47:21.956Z,973.38
2016-12-04T07:48:21.915Z,973.38
2016-12-04T07:49:21.874Z,973.37
2016-12-04T07:50:21.832Z,973.4
2016-12-04T07:51:21.791Z,973.37
2016-12-04T07:52:21.748Z,973.42
2016-12-04T07:53:21.707Z,973.4
2016-12-04T07:54:21.665Z,973.39
2016-12-04T07:55:21.623Z,973.39
2016-12-04T07:56:21.583Z,973.42
2016-12-04T07:57:21.543Z,973.39
2016-12-04T07:58:21.499Z,973.43
2016-12-04T07:59:21.457Z,973.46
2016-12-04T08:00:21.415Z,973.51
2016-12-04T08:01:21.373Z,973.51
2016-12-04T08:02:21.331Z,973.56
2016-12-04T08:03:21.290Z,973.52
2016-12-04T08:04:21.248Z,973.5
2016-12-04T08:05:21.206Z,973.57
2016-12-04T08:06:21.163Z,973.6
2016-12-04T08:07:21.123Z,973.59
2016-12-04T08:08:21.080Z,973.57
2016-12-04T08:09:21.038Z,973.63
2016-12-04T08:10:20.997Z,973.64
2016-12-04T08:11:20.958Z,973.61
2016-12-04T08:12:20.915Z,973.6
2016-12-04T08:13:20.874Z,973.66
2016-12-04T08:14:20.833Z,973.64
2016-12-04T08:15:20.789Z,973.68
2016-12-04T08:16:20.747Z,973.7
2016-12-04T08:17:20.707Z,973.68
2016-12-04T08:18:20.665Z,973.66
2016-12-04T08:19:20.622Z,973.71
2016-12-04T08:20:20.580Z,973.67
2016-12-04T08:21:20.539Z,973.71
2016-12-04T08:22:20.498Z,973.75
2016-12-04T08:23:20.455Z,973.72
2016-12-04T08:24:20.414Z,973.72
2016-12-04T08:25:20.373Z,973.71
2016-12-04T08:26:20.330Z,973.7
2016-12-04T08:27:20.290Z,973.73
2016-12-04T08:28:20.246Z,973.72
2016-12-04T08:29:20.206Z,973.79
2016-12-04T08:30:20.164Z,973.77
2016-12-04T08:31:20.122Z,973.75
2016-12-04T08:32:20.082Z,973.75
2016-12-04T08:33:20.040Z,973.76
2016-12-04T08:34:19.996Z,973.74
2016-12-04T08:35:19.956Z,973.81
2016-12-04T08:36:19.916Z,973.78
2016-12-04T08:37:19.872Z,973.79
2016-12-04T08:38:19.832Z,973.79
2016-12-04T08:39:19.790Z,973.82
2016-12-04T08:40:19.748Z,973.8
2016-12-04T08:41:19.706Z,973.84
2016-12-04T08:42:19.665Z,973.82
2016-12-04T08:43:19.626Z,973.77
2016-12-04T08:44:19.583Z,973.82
2016-12-04T08:45:19.540Z,973.8
2016-12-04T08:46:19.500Z,973.84
2016-12-04T08:47:19.460Z,973.84
2016-12-04T08:48:19.420Z,973.83
2016-12-04T08:49:19.375Z,973.85
2016-12-04T08:50:19.335Z,973.83
2016-12-04T08:51:19.295Z,973.85
2016-12-04T08:52:19.252Z,973.91
2016-12-04T08:53:19.212Z,973.94
2016-12-04T08:54:19.167Z,973.9
2016-12-04T08:55:19.126Z,973.93
2016-12-04T08:56:19.084Z,973.92
2016-12-04T08:57:19.042Z,973.92
2016-12-04T08:58:19.003Z,973.93
2016-12-04T08:59:18.961Z,973.95
2016-12-04T09:00:18.919Z,973.92
2016-12-04T09:01:18.878Z,973.96
2016-12-04T09:02:18.838Z,974
2016-12-04T09:03:18.797Z,974
2016-12-04T09:04:18.754Z,973.99
2016-12-04T09:05:18.715Z,973.98
2016-12-04T09:06:18.671Z,973.96
2016-12-04T09:07:18.630Z,973.96
2016-12-04T09:08:18.590Z,974
2016-12-04T09:09:18.548Z,974.02
2016-12-04T09:10:18.506Z,973.97
2016-12-04T09:11:18.465Z,973.95
2016-12-04T09:12:18.424Z,973.98
2016-12-04T09:13:18.384Z,973.98
2016-12-04T09:14:18.341Z,974.03
2016-12-04T09:15:18.299Z,974.04
2016-12-04T09:16:18.260Z,974.04
2016-12-04T09:17:18.217Z,974.01
2016-12-04T09:18:18.179Z,974.01
2016-12-04T09:19:18.137Z,974.06
2016-12-04T09:20:18.095Z,974.05
2016-12-04T09:21:18.052Z,974.01
2016-12-04T09:22:18.013Z,974.09
2016-12-04T09:23:17.972Z,974.07
2016-12-04T09:24:17.932Z,974.08
2016-12-04T09:25:17.891Z,974.09
2016-12-04T09:26:17.850Z,974.1
2016-12-04T09:27:17.809Z,974.11
2016-12-04T09:28:17.766Z,974.11
2016-12-04T09:29:17.725Z,974.1
2016-12-04T09:30:17.684Z,974.16
2016-12-04T09:31:17.644Z,974.13
2016-12-04T09:32:17.602Z,974.12
2016-12-04T09:33:17.560Z,974.13
2016-12-04T09:34:17.522Z,974.2
2016-12-04T09:35:17.479Z,974.14
2016-12-04T09:36:17.437Z,974.2
2016-12-04T09:37:17.395Z,974.21
2016-12-04T09:38:17.355Z,974.22
2016-12-04T09:39:17.313Z,974.19
2016-12-04T09:40:17.272Z,974.21
2016-12-04T09:41:17.232Z,974.22
2016-12-04T09:42:17.190Z,974.2
2016-12-04T09:43:17.149Z,974.18
2016-12-04T09:44:17.109Z,974.22
2016-12-04T09:45:17.067Z,974.21
2016-12-04T09:46:17.028Z,974.2
2016-12-04T09:47:16.985Z,974.21
2016-12-04T09:48:16.944Z,974.17
2016-12-04T09:49:16.904Z,974.19
2016-12-04T09:50:16.863Z,974.21
2016-12-04T09:51:16.819Z,974.21
2016-12-04T09:52:16.781Z,974.21
2016-12-04T09:53:16.739Z,974.23
2016-12-04T09:54:16.699Z,974.24
2016-12-04T09:55:16.658Z,974.19
2016-12-04T09:56:16.617Z,974.12
2016-12-04T09:57:16.576Z,974.12
2016-12-04T09:58:16.534Z,974.12
2016-12-04T09:59:16.494Z,974.16
2016-12-04T10:00:16.453Z,974.15
2016-12-04T10:01:16.412Z,974.15
2016-12-04T10:02:16.371Z,974.08
2016-12-04T10:03:16.329Z,974.09
2016-12-04T10:04:16.288Z,974.08
2016-12-04T10:05:16.247Z,974.03
2016-12-04T10:06:16.208Z,974.08
2016-12-04T10:07:16.176Z,974.07
2016-12-04T10:08:16.125Z,974.04
2016-12-04T10:09:16.085Z,974.07
2016-12-04T10:10:16.044Z,974.05
2016-12-04T10:11:16.005Z,974.04
2016-12-04T10:12:15.963Z,974.01
2016-12-04T10:13:15.925Z,974.02
2016-12-04T10:14:15.884Z,974.02
2016-12-04T10:15:15.842Z,974.02
2016-12-04T10:16:15.801Z,973.97
2016-12-04T10:17:15.759Z,973.96
2016-12-04T10:18:15.720Z,973.98
2016-12-04T10:19:15.679Z,973.98
2016-12-04T10:20:15.639Z,973.98
2016-12-04T10:21:15.598Z,973.98
2016-12-04T10:22:15.558Z,973.98
2016-12-04T10:23:15.516Z,973.93
2016-12-04T10:24:15.477Z,973.89
2016-12-04T10:25:15.437Z,973.91
2016-12-04T10:26:15.395Z,973.97
2016-12-04T10:27:15.355Z,973.94
2016-12-04T10:28:15.315Z,973.94
2016-12-04T10:29:15.275Z,973.93
2016-12-04T10:30:15.235Z,973.91
2016-12-04T10:31:15.194Z,973.93
2016-12-04T10:32:15.155Z,973.92
2016-12-04T10:33:15.114Z,973.88
2016-12-04T10:34:15.072Z,973.91
2016-12-04T10:35:15.032Z,973.91
2016-12-04T10:36:14.993Z,973.93
2016-12-04T10:37:14.953Z,973.92
2016-12-04T10:38:14.918Z,973.92
2016-12-04T10:39:14.872Z,973.95
2016-12-04T10:40:14.834Z,973.91
2016-12-04T10:41:14.792Z,973.93
2016-12-04T10:42:14.751Z,973.95
2016-12-04T10:43:14.712Z,973.99
2016-12-04T10:44:14.679Z,973.95
2016-12-04T10:45:14.631Z,973.9
2016-12-04T10:46:14.594Z,973.9
2016-12-04T10:47:14.551Z,973.91
2016-12-04T10:48:14.512Z,973.98
2016-12-04T10:49:14.471Z,973.93
2016-12-04T10:50:14.432Z,973.91
2016-12-04T10:51:14.392Z,973.92
2016-12-04T10:52:14.353Z,973.91
2016-12-04T10:53:14.312Z,973.88
2016-12-04T10:54:14.272Z,973.9
2016-12-04T10:55:14.233Z,973.87
2016-12-04T10:56:14.191Z,973.86
2016-12-04T10:57:14.153Z,973.92
2016-12-04T10:58:14.112Z,973.89
2016-12-04T10:59:14.073Z,973.88
2016-12-04T11:00:14.032Z,973.88
2016-12-04T11:01:14.001Z,973.86
2016-12-04T11:02:13.955Z,973.89
2016-12-04T11:03:13.912Z,973.85
2016-12-04T11:04:13.873Z,973.86
2016-12-04T11:05:13.834Z,973.87
2016-12-04T11:06:13.794Z,973.86
2016-12-04T11:07:13.753Z,973.85
2016-12-04T11:08:13.715Z,973.85
2016-12-04T11:09:13.676Z,973.82
2016-12-04T11:10:13.636Z,973.85
2016-12-04T11:11:13.595Z,973.86
2016-12-04T11:12:13.558Z,973.81
2016-12-04T11:13:13.519Z,973.79
2016-12-04T11:14:13.478Z,973.78
2016-12-04T11:15:13.439Z,973.79
2016-12-04T11:16:13.400Z,973.84
2016-12-04T11:17:13.360Z,973.9
2016-12-04T11:18:13.321Z,973.89
2016-12-04T11:19:13.281Z,973.84
2016-12-04T11:20:13.242Z,973.84
2016-12-04T11:21:13.203Z,973.78
2016-12-04T11:22:13.164Z,973.83
2016-12-04T11:23:13.124Z,973.83
2016-12-04T11:24:13.085Z,973.79
2016-12-04T11:25:13.045Z,973.8
2016-12-04T11:26:13.006Z,973.83
2016-12-04T11:27:12.966Z,973.84
2016-12-04T11:28:12.926Z,973.81
2016-12-04T11:29:12.890Z,973.78
2016-12-04T11:30:12.853Z,973.84
2016-12-04T11:31:12.811Z,973.82
2016-12-04T11:32:12.771Z,973.84
2016-12-04T11:33:12.731Z,973.84
2016-12-04T11:34:12.692Z,973.84
2016-12-04T11:35:12.654Z,973.81
2016-12-04T11:36:12.614Z,973.85
2016-12-04T11:37:12.575Z,973.83
2016-12-04T11:38:12.539Z,973.84
2016-12-04T11:39:12.497Z,973.81
2016-12-04T11:40:12.461Z,973.81
2016-12-04T11:41:12.419Z,973.83
2016-12-04T11:42:12.382Z,973.79
2016-12-04T11:43:12.344Z,973.78
2016-12-04T11:44:12.305Z,973.78
2016-12-04T11:45:12.267Z,973.77
2016-12-04T11:46:12.228Z,973.78
2016-12-04T11:47:12.189Z,973.75
2016-12-04T11:48:12.149Z,973.77
2016-12-04T11:49:12.111Z,973.72
2016-12-04T11:50:12.072Z,973.74
2016-12-04T11:51:12.033Z,973.73
2016-12-04T11:52:11.996Z,973.75
2016-12-04T11:53:11.958Z,973.76
2016-12-04T11:54:11.920Z,973.77
2016-12-04T11:55:11.881Z,973.76
2016-12-04T11:56:11.845Z,973.76
2016-12-04T11:57:11.805Z,973.75
2016-12-04T11:58:11.768Z,973.69
2016-12-04T11:59:11.729Z,973.65
2016-12-04T12:00:11.689Z,973.68
2016-12-04T12:01:11.651Z,973.68
2016-12-04T12:02:11.613Z,973.68
2016-12-04T12:03:11.575Z,973.68
2016-12-04T12:04:11.536Z,973.69
2016-12-04T12:05:11.498Z,973.68
2016-12-04T12:06:11.460Z,973.67
2016-12-04T12:07:11.421Z,973.69
2016-12-04T12:08:11.384Z,973.69
2016-12-04T12:09:11.342Z,973.66
2016-12-04T12:10:11.309Z,973.71
2016-12-04T12:11:11.267Z,973.69
2016-12-04T12:12:11.229Z,973.65
2016-12-04T12:13:11.189Z,973.62
2016-12-04T12:14:11.152Z,973.65
2016-12-04T12:15:11.112Z,973.64
2016-12-04T12:16:11.074Z,973.66
2016-12-04T12:17:11.033Z,973.66
2016-12-04T12:18:10.997Z,973.63
2016-12-04T12:19:10.959Z,973.65
2016-12-04T12:20:10.918Z,973.65
2016-12-04T12:21:10.882Z,973.63
2016-12-04T12:22:10.843Z,973.62
2016-12-04T12:23:10.805Z,973.61
2016-12-04T12:24:10.767Z,973.58
2016-12-04T12:25:10.727Z,973.57
2016-12-04T12:26:10.690Z,973.56
2016-12-04T12:27:10.651Z,973.57
2016-12-04T12:28:10.613Z,973.59
2016-12-04T12:29:10.575Z,973.59
2016-12-04T12:30:10.539Z,973.64
2016-12-04T12:31:10.497Z,973.64